Time;durP1;ratioP1;P1;durP2;ratioP2;P2;SDS_P1;SDS_P2;PMS_P1;PMS_P2;Temp;Humidity;BMP_temperature;BMP_pressure;BME280_temperature;BME280_humidity;BME280_pressure;Samples;Min_cycle;Max_cycle;Signal;HPM_P1;HPM_P2
2023/05/25 00:02:06;;;;;;;22.92;13.38;;;;;;;;;;6258291;22;20046;-86
2023/05/25 00:04:35;;;;;;;24.10;16.52;;;;;;;;;;6311337;22;20065;-86
2023/05/25 00:07:01;;;;;;;24.90;18.60;;;;;;;;;;6309625;22;20080;-87
2023/05/25 00:09:27;;;;;;;20.40;16.42;;;;;;;;;;6283438;22;20015;-86
2023/05/25 00:11:53;;;;;;;17.23;14.65;;;;;;;;;;6284539;22;20007;-87
2023/05/25 00:14:20;;;;;;;18.92;13.95;;;;;;;;;;6283050;22;20011;-87
2023/05/25 00:16:47;;;;;;;18.58;15.50;;;;;;;;;;6283078;22;20022;-87
2023/05/25 00:19:13;;;;;;;18.42;15.50;;;;;;;;;;6312174;22;20022;-86
2023/05/25 00:21:40;;;;;;;21.88;19.83;;;;;;;;;;6282798;22;20015;-87
2023/05/25 00:24:06;;;;;;;17.90;16.10;;;;;;;;;;6284702;22;20026;-87
2023/05/25 00:26:33;;;;;;;22.20;14.63;;;;;;;;;;6313805;22;20039;-88
2023/05/25 00:29:02;;;;;;;25.25;22.73;;;;;;;;;;6312600;22;20011;-87
2023/05/25 00:31:28;;;;;;;18.73;14.38;;;;;;;;;;6313462;22;20023;-87
2023/05/25 00:33:54;;;;;;;20.95;18.77;;;;;;;;;;6285173;22;20007;-87
2023/05/25 00:36:20;;;;;;;23.88;21.20;;;;;;;;;;6259017;22;20090;-87
2023/05/25 00:38:46;;;;;;;16.90;14.18;;;;;;;;;;6312650;22;20034;-87
2023/05/25 00:41:12;;;;;;;16.90;13.02;;;;;;;;;;6285087;22;20145;-87
2023/05/25 00:43:38;;;;;;;23.23;17.77;;;;;;;;;;6258958;22;20110;-87
2023/05/25 00:46:04;;;;;;;19.80;11.57;;;;;;;;;;6259436;22;20379;-87
2023/05/25 00:48:30;;;;;;;22.42;20.02;;;;;;;;;;6259253;22;20023;-86
2023/05/25 00:50:58;;;;;;;17.15;11.40;;;;;;;;;;6312571;22;20011;-87
2023/05/25 00:53:25;;;;;;;17.85;15.93;;;;;;;;;;6260013;22;20353;-87
2023/05/25 00:56:23;;;;;;;18.08;11.75;;;;;;;;;;6285383;22;20015;-88
2023/05/25 00:58:51;;;;;;;19.38;14.48;;;;;;;;;;6204418;22;20015;-88
2023/05/25 01:01:18;;;;;;;19.40;16.10;;;;;;;;;;6285571;22;20057;-87
2023/05/25 01:03:52;;;;;;;20.08;14.13;;;;;;;;;;6286582;22;20011;-87
2023/05/25 01:06:19;;;;;;;20.77;14.63;;;;;;;;;;6285807;22;20012;-87
2023/05/25 01:08:49;;;;;;;21.60;14.32;;;;;;;;;;6285873;22;20334;-87
2023/05/25 01:11:16;;;;;;;18.17;11.20;;;;;;;;;;6259051;22;20017;-88
2023/05/25 01:13:42;;;;;;;20.00;15.38;;;;;;;;;;6285057;22;20499;-87
2023/05/25 01:16:09;;;;;;;16.38;14.30;;;;;;;;;;6260638;22;20011;-87
2023/05/25 01:18:36;;;;;;;17.80;13.20;;;;;;;;;;6285766;22;20022;-87
2023/05/25 01:21:12;;;;;;;14.63;13.07;;;;;;;;;;6259972;22;20434;-88
2023/05/25 01:23:40;;;;;;;20.40;12.90;;;;;;;;;;6259891;22;20015;-87
2023/05/25 01:26:08;;;;;;;17.52;13.90;;;;;;;;;;6311223;22;20011;-86
2023/05/25 01:28:39;;;;;;;24.02;12.75;;;;;;;;;;6313445;22;20011;-87
2023/05/25 01:31:06;;;;;;;20.20;14.20;;;;;;;;;;6285442;22;20018;-88
2023/05/25 01:33:32;;;;;;;16.38;13.32;;;;;;;;;;6259113;22;20019;-87
2023/05/25 01:35:59;;;;;;;18.00;16.13;;;;;;;;;;6285894;22;20011;-87
2023/05/25 01:38:25;;;;;;;14.80;11.27;;;;;;;;;;6284888;22;20015;-87
2023/05/25 01:40:51;;;;;;;18.63;14.15;;;;;;;;;;6285169;22;20019;-87
2023/05/25 01:43:17;;;;;;;18.08;14.60;;;;;;;;;;6285944;22;20018;-86
2023/05/25 01:45:43;;;;;;;18.85;16.92;;;;;;;;;;6284656;22;20438;-87
2023/05/25 01:48:15;;;;;;;19.23;13.18;;;;;;;;;;6312660;22;20007;-86
2023/05/25 01:50:51;;;;;;;23.70;17.33;;;;;;;;;;6312914;22;20011;-86
2023/05/25 01:53:23;;;;;;;21.85;16.42;;;;;;;;;;6311820;22;20027;-86
2023/05/25 01:55:58;;;;;;;18.50;14.55;;;;;;;;;;6285001;22;20015;-86
2023/05/25 01:58:25;;;;;;;17.08;13.23;;;;;;;;;;6313425;22;20330;-86
2023/05/25 02:00:51;;;;;;;20.70;14.48;;;;;;;;;;6284127;22;20011;-87
2023/05/25 02:03:17;;;;;;;20.27;14.40;;;;;;;;;;6312747;22;20023;-87
2023/05/25 02:05:43;;;;;;;17.98;14.10;;;;;;;;;;6311721;22;20072;-87
2023/05/25 02:08:09;;;;;;;16.95;14.02;;;;;;;;;;6259725;22;20011;-87
2023/05/25 02:10:35;;;;;;;18.60;16.60;;;;;;;;;;6285118;22;20007;-87
2023/05/25 02:13:01;;;;;;;18.02;11.30;;;;;;;;;;6259255;22;20026;-87
2023/05/25 02:15:31;;;;;;;17.58;15.05;;;;;;;;;;6312518;22;20019;-86
2023/05/25 02:17:58;;;;;;;22.05;14.35;;;;;;;;;;6284010;22;20050;-87
2023/05/25 02:20:25;;;;;;;17.23;14.13;;;;;;;;;;6313178;22;20019;-86
2023/05/25 02:22:51;;;;;;;14.27;11.27;;;;;;;;;;6294886;22;20015;-87
2023/05/25 02:25:17;;;;;;;18.90;13.65;;;;;;;;;;6266535;22;20094;-87
2023/05/25 02:27:43;;;;;;;16.67;12.85;;;;;;;;;;6293635;22;20342;-86
2023/05/25 02:30:10;;;;;;;16.00;13.13;;;;;;;;;;6319467;22;20082;-87
2023/05/25 02:32:36;;;;;;;17.80;12.65;;;;;;;;;;6291866;22;20018;-87
2023/05/25 02:35:02;;;;;;;16.42;12.65;;;;;;;;;;6290085;22;20022;-86
2023/05/25 02:37:28;;;;;;;16.88;13.82;;;;;;;;;;6266265;22;20076;-86
2023/05/25 02:39:54;;;;;;;20.23;12.82;;;;;;;;;;6288706;22;20015;-86
2023/05/25 02:42:20;;;;;;;21.75;12.68;;;;;;;;;;6290086;22;20062;-86
2023/05/25 02:44:47;;;;;;;19.45;14.23;;;;;;;;;;6291254;22;20018;-86
2023/05/25 02:47:17;;;;;;;16.63;11.07;;;;;;;;;;6293540;22;20015;-87
2023/05/25 02:49:46;;;;;;;17.65;13.48;;;;;;;;;;6321408;22;20007;-87
2023/05/25 02:52:12;;;;;;;15.20;11.05;;;;;;;;;;6294709;22;20064;-87
2023/05/25 02:54:38;;;;;;;17.42;11.10;;;;;;;;;;6319680;22;20066;-87
2023/05/25 02:57:04;;;;;;;21.27;14.23;;;;;;;;;;6267285;22;20041;-85
2023/05/25 02:59:30;;;;;;;16.23;10.98;;;;;;;;;;6292647;22;20011;-87
2023/05/25 03:01:57;;;;;;;18.10;13.32;;;;;;;;;;6267182;22;20007;-86
2023/05/25 03:04:23;;;;;;;18.33;13.20;;;;;;;;;;6289953;22;20015;-87
2023/05/25 03:06:49;;;;;;;16.98;12.65;;;;;;;;;;6293064;22;20446;-87
2023/05/25 03:09:15;;;;;;;15.73;11.38;;;;;;;;;;6291539;22;20043;-86
2023/05/25 03:11:41;;;;;;;19.55;13.18;;;;;;;;;;6290612;22;20011;-87
2023/05/25 03:14:08;;;;;;;19.40;12.20;;;;;;;;;;6290318;22;20041;-87
2023/05/25 03:16:35;;;;;;;21.90;14.20;;;;;;;;;;6291376;22;20015;-87
2023/05/25 03:19:04;;;;;;;18.98;10.27;;;;;;;;;;6319595;22;20068;-86
2023/05/25 03:21:31;;;;;;;19.60;14.43;;;;;;;;;;6292356;22;20086;-87
2023/05/25 03:23:58;;;;;;;15.45;10.25;;;;;;;;;;6292330;22;20019;-86
2023/05/25 03:26:24;;;;;;;17.45;12.75;;;;;;;;;;6265668;22;20034;-86
2023/05/25 03:28:51;;;;;;;20.10;12.40;;;;;;;;;;6290883;22;20063;-86
2023/05/25 03:31:17;;;;;;;17.52;13.63;;;;;;;;;;6293933;22;20019;-87
2023/05/25 03:33:43;;;;;;;20.27;11.70;;;;;;;;;;6293030;22;20057;-86
2023/05/25 03:36:11;;;;;;;21.13;15.25;;;;;;;;;;6317732;22;20015;-87
2023/05/25 03:38:37;;;;;;;18.52;14.23;;;;;;;;;;6317811;22;20047;-87
2023/05/25 03:41:03;;;;;;;16.17;12.55;;;;;;;;;;6265178;22;20018;-87
2023/05/25 03:43:29;;;;;;;19.98;14.35;;;;;;;;;;6293579;22;20011;-87
2023/05/25 03:45:55;;;;;;;19.58;14.23;;;;;;;;;;6289242;22;20050;-86
2023/05/25 03:48:21;;;;;;;18.83;15.00;;;;;;;;;;6265918;22;20015;-86
2023/05/25 03:50:47;;;;;;;22.73;15.32;;;;;;;;;;6317726;22;20015;-85
2023/05/25 03:53:13;;;;;;;16.98;13.45;;;;;;;;;;6316066;22;20531;-86
2023/05/25 03:55:40;;;;;;;18.00;14.15;;;;;;;;;;6292154;22;20015;-87
2023/05/25 03:58:08;;;;;;;20.48;15.93;;;;;;;;;;6321097;22;20011;-86
2023/05/25 04:00:35;;;;;;;20.83;15.60;;;;;;;;;;6321348;22;20016;-88
2023/05/25 04:03:01;;;;;;;20.88;14.32;;;;;;;;;;6317408;22;20011;-86
2023/05/25 04:05:27;;;;;;;18.13;14.68;;;;;;;;;;6288388;22;20019;-85
2023/05/25 04:07:53;;;;;;;20.00;14.85;;;;;;;;;;6290674;22;20007;-86
2023/05/25 04:10:19;;;;;;;19.20;17.23;;;;;;;;;;6292000;22;20101;-86
2023/05/25 04:12:45;;;;;;;19.77;15.93;;;;;;;;;;6293777;22;20022;-87
2023/05/25 04:15:13;;;;;;;22.35;17.60;;;;;;;;;;6319358;22;20015;-86
2023/05/25 04:17:39;;;;;;;19.90;15.00;;;;;;;;;;6317955;22;20015;-86
2023/05/25 04:20:07;;;;;;;21.58;19.63;;;;;;;;;;6320813;22;20042;-87
2023/05/25 04:22:33;;;;;;;16.58;13.00;;;;;;;;;;6268419;22;20067;-84
2023/05/25 04:24:59;;;;;;;19.48;13.85;;;;;;;;;;6291873;22;20016;-88
2023/05/25 04:27:27;;;;;;;17.83;11.50;;;;;;;;;;6266483;22;20049;-85
2023/05/25 04:29:53;;;;;;;20.23;14.68;;;;;;;;;;6285863;22;20034;-86
2023/05/25 04:32:20;;;;;;;17.83;11.90;;;;;;;;;;6285933;22;20438;-85
2023/05/25 04:34:47;;;;;;;20.60;16.15;;;;;;;;;;6316151;22;20011;-85
2023/05/25 04:37:13;;;;;;;17.88;13.93;;;;;;;;;;6288508;22;20056;-86
2023/05/25 04:39:39;;;;;;;20.88;15.60;;;;;;;;;;6287698;22;20022;-85
2023/05/25 04:42:06;;;;;;;18.67;14.88;;;;;;;;;;6317617;22;20039;-84
2023/05/25 04:44:32;;;;;;;17.65;11.68;;;;;;;;;;6288620;22;20046;-85
2023/05/25 04:47:00;;;;;;;17.65;12.43;;;;;;;;;;6287383;22;20012;-85
2023/05/25 04:49:26;;;;;;;17.60;13.55;;;;;;;;;;6261995;22;20015;-85
2023/05/25 04:51:52;;;;;;;17.65;11.60;;;;;;;;;;6286265;22;20476;-86
2023/05/25 04:54:18;;;;;;;19.52;16.67;;;;;;;;;;6259509;22;20194;-86
2023/05/25 04:56:44;;;;;;;22.65;17.55;;;;;;;;;;6260299;22;20015;-86
2023/05/25 04:59:11;;;;;;;18.65;16.42;;;;;;;;;;6285897;22;20023;-85
2023/05/25 05:01:39;;;;;;;18.98;14.10;;;;;;;;;;6260544;22;20019;-86
2023/05/25 05:04:08;;;;;;;15.77;11.43;;;;;;;;;;6313848;22;20049;-85
2023/05/25 05:06:35;;;;;;;20.83;18.63;;;;;;;;;;6260847;22;20094;-85
2023/05/25 05:09:02;;;;;;;18.38;16.50;;;;;;;;;;6289235;22;20080;-86
2023/05/25 05:11:28;;;;;;;18.90;13.00;;;;;;;;;;6295754;22;20015;-86
2023/05/25 05:13:54;;;;;;;20.60;13.70;;;;;;;;;;6271047;22;20015;-86
2023/05/25 05:16:21;;;;;;;24.67;14.65;;;;;;;;;;6296669;22;20015;-87
2023/05/25 05:18:47;;;;;;;19.77;13.57;;;;;;;;;;6266774;22;20019;-87
2023/05/25 05:21:13;;;;;;;16.15;9.25;;;;;;;;;;6317679;22;20015;-87
2023/05/25 05:23:39;;;;;;;14.48;10.95;;;;;;;;;;6293008;22;20086;-88
2023/05/25 05:26:09;;;;;;;12.88;8.80;;;;;;;;;;6292184;22;20015;-87
2023/05/25 05:28:35;;;;;;;16.33;7.55;;;;;;;;;;6265496;22;20045;-86
2023/05/25 05:31:01;;;;;;;21.10;8.75;;;;;;;;;;6292622;22;20007;-87
2023/05/25 05:33:27;;;;;;;16.73;9.20;;;;;;;;;;6268952;22;20015;-87
2023/05/25 05:35:53;;;;;;;15.15;7.07;;;;;;;;;;6270529;22;20015;-86
2023/05/25 05:38:20;;;;;;;17.00;8.35;;;;;;;;;;6293797;22;20011;-88
2023/05/25 05:40:46;;;;;;;15.85;9.02;;;;;;;;;;6281184;22;20043;-87
2023/05/25 05:43:12;;;;;;;17.60;9.25;;;;;;;;;;6304526;22;20018;-88
2023/05/25 05:45:38;;;;;;;16.75;7.70;;;;;;;;;;6278854;22;20015;-88
2023/05/25 05:48:08;;;;;;;14.90;7.68;;;;;;;;;;6279500;22;20061;-88
2023/05/25 05:50:34;;;;;;;15.15;7.90;;;;;;;;;;6279160;22;20008;-88
2023/05/25 05:53:00;;;;;;;15.40;6.82;;;;;;;;;;6278924;22;20015;-88
2023/05/25 05:55:26;;;;;;;17.98;7.80;;;;;;;;;;6306940;22;20053;-88
2023/05/25 05:57:52;;;;;;;14.55;7.30;;;;;;;;;;6253844;22;20015;-88
2023/05/25 06:00:19;;;;;;;17.45;7.25;;;;;;;;;;6253937;22;20123;-88
2023/05/25 06:02:45;;;;;;;20.02;8.18;;;;;;;;;;6306691;22;20093;-87
2023/05/25 06:05:11;;;;;;;19.50;7.25;;;;;;;;;;6279356;22;20014;-87
2023/05/25 06:07:37;;;;;;;15.32;7.75;;;;;;;;;;6306843;22;20016;-88
2023/05/25 06:10:03;;;;;;;16.38;7.85;;;;;;;;;;6253710;22;20011;-87
2023/05/25 06:12:30;;;;;;;20.88;7.47;;;;;;;;;;6254085;22;20011;-87
2023/05/25 06:14:55;;;;;;;17.77;6.55;;;;;;;;;;6279973;22;20007;-88
2023/05/25 06:17:23;;;;;;;18.45;5.97;;;;;;;;;;6279142;22;20419;-87
2023/05/25 06:19:49;;;;;;;14.07;6.13;;;;;;;;;;6253906;22;20011;-88
2023/05/25 06:22:15;;;;;;;18.00;5.78;;;;;;;;;;6278592;22;20008;-87
2023/05/25 06:24:41;;;;;;;13.35;5.45;;;;;;;;;;6306756;22;20035;-87
2023/05/25 06:27:07;;;;;;;15.73;5.50;;;;;;;;;;6278594;22;20019;-88
2023/05/25 06:29:33;;;;;;;19.73;6.13;;;;;;;;;;6279663;22;20098;-88
2023/05/25 06:31:59;;;;;;;17.08;6.30;;;;;;;;;;6306799;22;20017;-88
2023/05/25 06:34:25;;;;;;;18.08;7.68;;;;;;;;;;6306501;22;20014;-88
2023/05/25 06:36:52;;;;;;;16.98;7.22;;;;;;;;;;6253471;22;20063;-88
2023/05/25 06:39:18;;;;;;;20.60;8.65;;;;;;;;;;6253093;22;20028;-87
2023/05/25 06:41:44;;;;;;;18.55;7.55;;;;;;;;;;6252886;22;20027;-88
2023/05/25 06:44:10;;;;;;;23.85;8.98;;;;;;;;;;6253362;22;20011;-88
2023/05/25 06:46:37;;;;;;;14.52;6.30;;;;;;;;;;6252995;22;20015;-88
2023/05/25 06:49:03;;;;;;;17.05;7.28;;;;;;;;;;6252544;22;20007;-87
2023/05/25 06:51:30;;;;;;;20.88;7.88;;;;;;;;;;6305642;22;20042;-88
2023/05/25 06:53:56;;;;;;;22.52;6.97;;;;;;;;;;6278580;22;20015;-87
2023/05/25 06:56:22;;;;;;;22.77;11.95;;;;;;;;;;6277970;22;20030;-88
2023/05/25 06:58:49;;;;;;;26.00;18.65;;;;;;;;;;6278464;22;20011;-87
2023/05/25 07:01:15;;;;;;;23.85;19.80;;;;;;;;;;6278351;22;20442;-87
2023/05/25 07:03:41;;;;;;;23.98;19.95;;;;;;;;;;6252427;22;20272;-88
2023/05/25 07:06:11;;;;;;;26.92;23.95;;;;;;;;;;6305360;22;20427;-87
2023/05/25 07:08:37;;;;;;;29.27;26.60;;;;;;;;;;6252555;22;20015;-87
2023/05/25 07:11:03;;;;;;;41.17;37.40;;;;;;;;;;6277953;22;20080;-87
2023/05/25 07:13:29;;;;;;;31.48;26.65;;;;;;;;;;6278323;22;20046;-87
2023/05/25 07:15:55;;;;;;;26.15;20.60;;;;;;;;;;6277834;22;20018;-86
2023/05/25 07:18:21;;;;;;;28.75;19.88;;;;;;;;;;6277790;22;20019;-86
2023/05/25 07:20:47;;;;;;;22.70;15.55;;;;;;;;;;6252185;22;20026;-86
2023/05/25 07:23:13;;;;;;;20.98;8.13;;;;;;;;;;6252373;22;20018;-86
2023/05/25 07:25:40;;;;;;;17.52;7.47;;;;;;;;;;6304562;22;20092;-86
2023/05/25 07:28:06;;;;;;;26.80;8.63;;;;;;;;;;6305494;22;20058;-87
2023/05/25 07:30:32;;;;;;;27.55;14.35;;;;;;;;;;6277517;22;20451;-85
2023/05/25 07:32:58;;;;;;;25.70;15.70;;;;;;;;;;6304746;22;20033;-86
2023/05/25 07:35:25;;;;;;;28.48;14.38;;;;;;;;;;6252651;22;20341;-87
2023/05/25 07:38:00;;;;;;;24.77;14.90;;;;;;;;;;6304769;22;20445;-86
2023/05/25 07:40:27;;;;;;;23.65;8.23;;;;;;;;;;6304252;22;20007;-86
2023/05/25 07:42:53;;;;;;;24.92;16.45;;;;;;;;;;6252274;22;20014;-86
2023/05/25 07:45:20;;;;;;;23.73;11.43;;;;;;;;;;6277321;22;20080;-87
2023/05/25 07:47:46;;;;;;;30.13;19.70;;;;;;;;;;6278236;22;20007;-87
2023/05/25 07:50:13;;;;;;;30.23;21.00;;;;;;;;;;6252145;22;20082;-86
2023/05/25 07:52:39;;;;;;;43.80;26.13;;;;;;;;;;6251644;22;20018;-87
2023/05/25 07:55:08;;;;;;;22.98;11.85;;;;;;;;;;6251740;22;20109;-86
2023/05/25 07:57:34;;;;;;;66.45;61.28;;;;;;;;;;6305382;22;20231;-87
2023/05/25 08:00:00;;;;;;;300.50;280.35;;;;;;;;;;6277902;22;20008;-87
2023/05/25 08:02:27;;;;;;;541.42;503.70;;;;;;;;;;6277576;22;20011;-87
2023/05/25 08:04:53;;;;;;;727.70;672.28;;;;;;;;;;6278350;22;20314;-86
2023/05/25 08:07:19;;;;;;;691.08;639.80;;;;;;;;;;6278333;22;20086;-87
2023/05/25 08:09:45;;;;;;;858.78;787.47;;;;;;;;;;6276801;22;20022;-86
2023/05/25 08:12:11;;;;;;;926.00;844.97;;;;;;;;;;6277281;22;20060;-86
2023/05/25 08:14:37;;;;;;;909.40;832.25;;;;;;;;;;6277392;22;20022;-87
2023/05/25 08:17:04;;;;;;;889.50;815.30;;;;;;;;;;6277962;22;20091;-86
2023/05/25 08:19:31;;;;;;;862.53;790.65;;;;;;;;;;6251941;22;20022;-87
2023/05/25 08:21:57;;;;;;;814.95;750.30;;;;;;;;;;6252090;22;20015;-86
2023/05/25 08:24:23;;;;;;;811.42;747.22;;;;;;;;;;6277055;22;20023;-86
2023/05/25 08:26:49;;;;;;;779.78;719.63;;;;;;;;;;6304840;22;20015;-86
2023/05/25 08:29:15;;;;;;;800.33;737.45;;;;;;;;;;6278200;22;20030;-86
2023/05/25 08:31:42;;;;;;;773.83;713.13;;;;;;;;;;6304891;22;20007;-87
2023/05/25 08:34:08;;;;;;;719.75;664.83;;;;;;;;;;6251251;22;20011;-85
2023/05/25 08:36:34;;;;;;;769.50;710.30;;;;;;;;;;6276894;22;20011;-86
2023/05/25 08:39:01;;;;;;;790.67;729.22;;;;;;;;;;6303648;22;20015;-86
2023/05/25 08:41:27;;;;;;;767.08;707.55;;;;;;;;;;6277659;22;20029;-86
2023/05/25 08:43:53;;;;;;;723.38;669.00;;;;;;;;;;6277123;22;20028;-86
2023/05/25 08:46:37;;;;;;;732.50;676.88;;;;;;;;;;6278992;22;20423;-86
2023/05/25 08:49:10;;;;;;;844.13;774.88;;;;;;;;;;6253526;22;20274;-86
2023/05/25 08:51:37;;;;;;;954.13;867.92;;;;;;;;;;6278084;22;20350;-87
2023/05/25 08:54:07;;;;;;;977.33;885.35;;;;;;;;;;6278804;22;20102;-87
2023/05/25 08:56:35;;;;;;;980.22;890.38;;;;;;;;;;6279467;22;20082;-87
2023/05/25 08:59:08;;;;;;;1103.78;983.35;;;;;;;;;;6306375;22;20015;-87
2023/05/25 09:01:38;;;;;;;1083.55;967.13;;;;;;;;;;6279471;22;20014;-86
2023/05/25 09:04:04;;;;;;;1032.60;932.15;;;;;;;;;;6306503;22;20011;-87
2023/05/25 09:06:30;;;;;;;992.35;896.25;;;;;;;;;;6278684;22;20116;-86
2023/05/25 09:08:59;;;;;;;953.72;868.00;;;;;;;;;;6253956;22;20387;-87
2023/05/25 09:11:27;;;;;;;933.75;851.35;;;;;;;;;;6279413;22;20007;-90
2023/05/25 09:13:53;;;;;;;1045.38;940.45;;;;;;;;;;6253982;22;20107;-87
2023/05/25 09:16:19;;;;;;;995.47;902.42;;;;;;;;;;6279766;22;20019;-87
2023/05/25 09:18:45;;;;;;;901.15;823.45;;;;;;;;;;6279353;22;20337;-87
2023/05/25 09:21:11;;;;;;;849.15;780.53;;;;;;;;;;6279414;22;20046;-87
2023/05/25 09:23:37;;;;;;;804.80;741.22;;;;;;;;;;6279615;22;20019;-86
2023/05/25 09:26:03;;;;;;;761.30;702.83;;;;;;;;;;6253740;22;20065;-87
2023/05/25 09:28:29;;;;;;;775.75;714.15;;;;;;;;;;6279282;22;20072;-87
2023/05/25 09:30:56;;;;;;;663.08;614.17;;;;;;;;;;6306777;22;20007;-86
2023/05/25 09:33:22;;;;;;;711.95;657.28;;;;;;;;;;6279735;22;20122;-87
2023/05/25 09:35:48;;;;;;;652.28;604.22;;;;;;;;;;6278561;22;20583;-86
2023/05/25 09:38:15;;;;;;;695.60;643.50;;;;;;;;;;6306515;22;20011;-86
2023/05/25 09:40:41;;;;;;;519.65;483.27;;;;;;;;;;6278708;22;20041;-86
2023/05/25 09:43:07;;;;;;;564.05;523.65;;;;;;;;;;6253037;22;20519;-86
2023/05/25 09:45:34;;;;;;;607.03;563.22;;;;;;;;;;6278805;22;20438;-85
2023/05/25 09:48:01;;;;;;;619.08;573.80;;;;;;;;;;6279019;22;20019;-87
2023/05/25 09:50:27;;;;;;;667.38;617.88;;;;;;;;;;6278281;22;20026;-86
2023/05/25 09:52:57;;;;;;;747.55;689.42;;;;;;;;;;6279152;22;20032;-87
2023/05/25 09:55:23;;;;;;;773.97;711.30;;;;;;;;;;6278480;22;20681;-88
2023/05/25 09:57:56;;;;;;;640.03;592.97;;;;;;;;;;6252908;22;20442;-87
2023/05/25 10:00:22;;;;;;;;;;;;;;;;;;6253566;22;20007;-86
2023/05/25 10:02:48;;;;;;;583.92;542.47;;;;;;;;;;6278352;22;19937;-86
2023/05/25 10:05:15;;;;;;;579.50;537.92;;;;;;;;;;6277784;22;20021;-86
2023/05/25 10:07:41;;;;;;;554.85;512.75;;;;;;;;;;6284361;22;20065;-85
2023/05/25 10:10:07;;;;;;;611.33;566.55;;;;;;;;;;6286382;22;20047;-85
2023/05/25 10:12:34;;;;;;;559.10;518.53;;;;;;;;;;6262277;22;20090;-86
2023/05/25 10:15:03;;;;;;;573.47;532.58;;;;;;;;;;6289508;22;20046;-85
2023/05/25 10:17:31;;;;;;;508.95;473.38;;;;;;;;;;6261104;22;20022;-86
2023/05/25 10:20:00;;;;;;;474.92;442.33;;;;;;;;;;6286030;22;20015;-85
2023/05/25 10:22:35;;;;;;;531.58;493.55;;;;;;;;;;6313645;22;20042;-86
2023/05/25 10:25:08;;;;;;;468.05;436.83;;;;;;;;;;6260204;22;20011;-86
2023/05/25 10:27:39;;;;;;;598.65;554.67;;;;;;;;;;6288540;22;20086;-86
2023/05/25 10:30:06;;;;;;;632.20;585.83;;;;;;;;;;6260481;22;20022;-86
2023/05/25 10:32:32;;;;;;;493.00;457.92;;;;;;;;;;6260307;22;20011;-85
2023/05/25 10:34:58;;;;;;;444.65;414.52;;;;;;;;;;6286026;22;20011;-86
2023/05/25 10:37:27;;;;;;;429.35;400.17;;;;;;;;;;6286828;22;20018;-85
2023/05/25 10:39:55;;;;;;;357.05;333.90;;;;;;;;;;6285974;22;20008;-83
2023/05/25 10:42:21;;;;;;;390.73;364.90;;;;;;;;;;6285251;22;20016;-85
2023/05/25 10:44:47;;;;;;;345.02;322.23;;;;;;;;;;6285970;22;20043;-87
2023/05/25 10:47:13;;;;;;;362.75;339.10;;;;;;;;;;6286116;22;20011;-85
2023/05/25 10:49:56;;;;;;;317.02;295.77;;;;;;;;;;6285590;22;20106;-86
2023/05/25 10:52:26;;;;;;;471.10;439.20;;;;;;;;;;6259684;22;20089;-85
2023/05/25 10:54:55;;;;;;;453.55;422.90;;;;;;;;;;6259197;22;20098;-86
2023/05/25 10:57:21;;;;;;;427.63;399.40;;;;;;;;;;6262525;22;20019;-86
2023/05/25 10:59:49;;;;;;;398.40;370.42;;;;;;;;;;6287487;22;20008;-86
2023/05/25 11:02:15;;;;;;;328.33;307.25;;;;;;;;;;6285681;22;20008;-87
2023/05/25 11:04:41;;;;;;;327.58;307.38;;;;;;;;;;6261124;22;20011;-85
2023/05/25 11:07:13;;;;;;;351.88;328.60;;;;;;;;;;6285944;22;20098;-84
2023/05/25 11:09:43;;;;;;;370.45;346.38;;;;;;;;;;6261254;22;20018;-86
2023/05/25 11:12:19;;;;;;;441.52;411.70;;;;;;;;;;6287369;22;20007;-84
2023/05/25 11:15:05;;;;;;;391.17;364.40;;;;;;;;;;6287403;22;20090;-86
2023/05/25 11:17:31;;;;;;;376.58;351.52;;;;;;;;;;6286705;22;20446;-86
2023/05/25 11:20:05;;;;;;;370.85;346.15;;;;;;;;;;6259814;22;20046;-87
2023/05/25 11:22:31;;;;;;;372.08;347.77;;;;;;;;;;6284535;22;20071;-87
2023/05/25 11:25:02;;;;;;;409.55;381.95;;;;;;;;;;6285907;22;20015;-86
2023/05/25 11:27:28;;;;;;;397.38;370.30;;;;;;;;;;6285987;22;20224;-85
2023/05/25 11:29:58;;;;;;;409.98;383.13;;;;;;;;;;6261239;22;20015;-85
2023/05/25 11:32:24;;;;;;;427.73;399.67;;;;;;;;;;6285323;22;20049;-86
2023/05/25 11:35:00;;;;;;;459.40;427.73;;;;;;;;;;6285996;22;20015;-86
2023/05/25 11:37:32;;;;;;;564.05;523.65;;;;;;;;;;6260016;22;20076;-86
2023/05/25 11:39:58;;;;;;;629.25;582.35;;;;;;;;;;6312719;22;20032;-85
2023/05/25 11:42:24;;;;;;;683.85;632.30;;;;;;;;;;6285682;22;20011;-85
2023/05/25 11:44:50;;;;;;;629.10;582.60;;;;;;;;;;6286534;22;20018;-86
2023/05/25 11:47:21;;;;;;;525.63;489.15;;;;;;;;;;6260572;22;20080;-87
2023/05/25 11:49:48;;;;;;;490.60;456.65;;;;;;;;;;6260846;22;20019;-85
2023/05/25 11:52:15;;;;;;;497.20;462.70;;;;;;;;;;6261280;22;20381;-85
2023/05/25 11:54:42;;;;;;;461.15;429.83;;;;;;;;;;6261288;22;20021;-86
2023/05/25 11:57:15;;;;;;;574.42;533.10;;;;;;;;;;6261483;22;20046;-86
2023/05/25 11:59:41;;;;;;;;;;;;;;;;;;6264301;22;20047;-85
2023/05/25 12:02:07;;;;;;;327.45;305.88;;;;;;;;;;6263895;22;19915;-86
2023/05/25 12:04:33;;;;;;;390.08;363.80;;;;;;;;;;6317107;22;20015;-87
2023/05/25 12:07:03;;;;;;;431.15;403.02;;;;;;;;;;6290133;22;20018;-86
2023/05/25 12:09:29;;;;;;;532.67;494.55;;;;;;;;;;6288932;22;20007;-83
2023/05/25 12:11:55;;;;;;;572.47;531.30;;;;;;;;;;6262423;22;20007;-86
2023/05/25 12:14:22;;;;;;;607.95;563.97;;;;;;;;;;6261788;22;20461;-85
2023/05/25 12:16:48;;;;;;;415.23;387.02;;;;;;;;;;6286405;22;20026;-86
2023/05/25 12:19:15;;;;;;;341.85;319.42;;;;;;;;;;6289110;22;20015;-85
2023/05/25 12:21:42;;;;;;;477.45;445.45;;;;;;;;;;6264483;22;20026;-87
2023/05/25 12:24:09;;;;;;;546.72;507.58;;;;;;;;;;6262311;22;20014;-85
2023/05/25 12:26:35;;;;;;;534.15;496.77;;;;;;;;;;6289719;22;20011;-85
2023/05/25 12:29:02;;;;;;;589.60;546.28;;;;;;;;;;6288189;22;20011;-86
2023/05/25 12:31:29;;;;;;;662.28;613.10;;;;;;;;;;6261413;22;20045;-87
2023/05/25 12:34:05;;;;;;;559.80;519.22;;;;;;;;;;6288118;22;20082;-86
2023/05/25 12:36:44;;;;;;;661.15;612.03;;;;;;;;;;6289780;22;20342;-86
2023/05/25 12:39:11;;;;;;;597.78;554.17;;;;;;;;;;6262815;22;20015;-87
2023/05/25 12:41:47;;;;;;;450.95;420.35;;;;;;;;;;6263092;22;20021;-85
2023/05/25 12:44:21;;;;;;;515.00;478.98;;;;;;;;;;6289725;22;20047;-85
2023/05/25 12:46:54;;;;;;;508.85;473.38;;;;;;;;;;6263711;22;20022;-85
2023/05/25 12:49:33;;;;;;;484.75;451.48;;;;;;;;;;6264766;22;20011;-86
2023/05/25 12:52:00;;;;;;;462.13;430.02;;;;;;;;;;6284903;22;20015;-85
2023/05/25 12:54:37;;;;;;;467.30;435.90;;;;;;;;;;6283578;22;20047;-86
2023/05/25 12:57:07;;;;;;;431.33;402.52;;;;;;;;;;6283763;22;20016;-86
2023/05/25 12:59:34;;;;;;;444.13;414.80;;;;;;;;;;6286348;22;20041;-87
2023/05/25 13:02:00;;;;;;;464.80;432.90;;;;;;;;;;6284992;22;20454;-86
2023/05/25 13:04:27;;;;;;;423.83;395.05;;;;;;;;;;6285201;22;20086;-85
2023/05/25 13:06:54;;;;;;;409.80;382.20;;;;;;;;;;6260361;22;20069;-85
2023/05/25 13:09:22;;;;;;;417.33;388.83;;;;;;;;;;6259303;22;20027;-86
2023/05/25 13:11:48;;;;;;;390.33;364.55;;;;;;;;;;6259778;22;20016;-86
2023/05/25 13:14:15;;;;;;;367.35;343.35;;;;;;;;;;6285163;22;20014;-85
2023/05/25 13:16:41;;;;;;;419.95;391.60;;;;;;;;;;6259160;22;20015;-86
2023/05/25 13:19:07;;;;;;;372.60;348.60;;;;;;;;;;6256521;22;20038;-86
2023/05/25 13:21:33;;;;;;;367.52;343.45;;;;;;;;;;6257008;22;20051;-86
2023/05/25 13:23:59;;;;;;;426.17;395.67;;;;;;;;;;6284740;22;20034;-84
2023/05/25 13:26:26;;;;;;;377.17;352.50;;;;;;;;;;6274998;22;20397;-87
2023/05/25 13:28:52;;;;;;;507.02;470.42;;;;;;;;;;6274523;22;20011;-86
2023/05/25 13:31:18;;;;;;;400.25;373.17;;;;;;;;;;6275602;22;20062;-86
2023/05/25 13:33:44;;;;;;;470.40;437.38;;;;;;;;;;6249147;22;20023;-87
2023/05/25 13:36:10;;;;;;;437.52;405.95;;;;;;;;;;6274169;22;20101;-87
2023/05/25 13:38:37;;;;;;;433.88;404.25;;;;;;;;;;6274795;22;20015;-87
2023/05/25 13:41:04;;;;;;;390.52;364.45;;;;;;;;;;6274428;22;20034;-86
2023/05/25 13:43:30;;;;;;;347.15;324.35;;;;;;;;;;6275774;22;20115;-87
2023/05/25 13:45:57;;;;;;;323.40;302.17;;;;;;;;;;6274655;22;20341;-87
2023/05/25 13:48:24;;;;;;;303.40;283.80;;;;;;;;;;6274569;22;20011;-87
2023/05/25 13:50:50;;;;;;;318.60;297.77;;;;;;;;;;6273868;22;20012;-86
2023/05/25 13:53:16;;;;;;;350.13;326.83;;;;;;;;;;6248130;22;20019;-86
2023/05/25 13:55:42;;;;;;;386.27;360.73;;;;;;;;;;6275778;22;20046;-86
2023/05/25 13:58:09;;;;;;;365.77;341.40;;;;;;;;;;6273227;22;20087;-86
2023/05/25 14:00:35;;;;;;;335.50;313.50;;;;;;;;;;6275720;22;20077;-86
2023/05/25 14:03:01;;;;;;;347.40;324.90;;;;;;;;;;6274418;22;20012;-85
2023/05/25 14:05:29;;;;;;;337.20;315.20;;;;;;;;;;6273648;22;20158;-87
2023/05/25 14:07:55;;;;;;;319.52;299.13;;;;;;;;;;6248019;22;20012;-86
2023/05/25 14:10:21;;;;;;;304.17;284.73;;;;;;;;;;6248388;22;20015;-86